sensor_id;sensor_type;location;lat;lon;timestamp;temperature;humidity
15115;DHT22;7658;51.456;7.622;2023-04-03T00:00:23;0.40;99.90
15115;DHT22;7658;51.456;7.622;2023-04-03T00:02:49;0.40;99.90
15115;DHT22;7658;51.456;7.622;2023-04-03T00:05:14;0.40;99.90
15115;DHT22;7658;51.456;7.622;2023-04-03T00:07:40;0.50;99.90
15115;DHT22;7658;51.456;7.622;2023-04-03T00:10:07;0.50;99.90
15115;DHT22;7658;51.456;7.622;2023-04-03T00:12:32;0.40;99.90
15115;DHT22;7658;51.456;7.622;2023-04-03T00:14:58;0.20;99.90
15115;DHT22;7658;51.456;7.622;2023-04-03T00:17:24;0.10;99.90
15115;DHT22;7658;51.456;7.622;2023-04-03T00:19:50;0.20;99.90
15115;DHT22;7658;51.456;7.622;2023-04-03T00:22:16;0.20;99.90
15115;DHT22;7658;51.456;7.622;2023-04-03T00:24:42;0.00;99.90
15115;DHT22;7658;51.456;7.622;2023-04-03T00:27:07;0.00;99.90
15115;DHT22;7658;51.456;7.622;2023-04-03T00:29:33;0.00;99.90
15115;DHT22;7658;51.456;7.622;2023-04-03T00:31:59;0.10;99.90
15115;DHT22;7658;51.456;7.622;2023-04-03T00:34:25;0.10;99.90
15115;DHT22;7658;51.456;7.622;2023-04-03T00:36:50;0.10;99.90
15115;DHT22;7658;51.456;7.622;2023-04-03T00:39:16;0.20;99.90
15115;DHT22;7658;51.456;7.622;2023-04-03T00:41:42;0.20;99.90
15115;DHT22;7658;51.456;7.622;2023-04-03T00:44:22;0.20;99.90
15115;DHT22;7658;51.456;7.622;2023-04-03T00:46:48;0.20;99.90
15115;DHT22;7658;51.456;7.622;2023-04-03T00:49:14;0.10;99.90
15115;DHT22;7658;51.456;7.622;2023-04-03T00:51:40;0.00;99.90
15115;DHT22;7658;51.456;7.622;2023-04-03T00:54:07;-0.10;99.90
15115;DHT22;7658;51.456;7.622;2023-04-03T00:56:33;0.00;99.90
15115;DHT22;7658;51.456;7.622;2023-04-03T00:59:10;0.10;99.90
15115;DHT22;7658;51.456;7.622;2023-04-03T01:01:37;0.20;99.90
15115;DHT22;7658;51.456;7.622;2023-04-03T01:04:04;0.20;99.90
15115;DHT22;7658;51.456;7.622;2023-04-03T01:06:33;0.20;99.90
15115;DHT22;7658;51.456;7.622;2023-04-03T01:09:01;0.20;99.90
15115;DHT22;7658;51.456;7.622;2023-04-03T01:11:27;0.20;99.90
15115;DHT22;7658;51.456;7.622;2023-04-03T01:13:53;0.20;99.90
15115;DHT22;7658;51.456;7.622;2023-04-03T01:16:19;0.20;99.90
15115;DHT22;7658;51.456;7.622;2023-04-03T01:18:45;0.20;99.90
15115;DHT22;7658;51.456;7.622;2023-04-03T01:21:50;0.00;99.90
15115;DHT22;7658;51.456;7.622;2023-04-03T01:24:58;-0.10;99.90
15115;DHT22;7658;51.456;7.622;2023-04-03T01:27:18;0.00;99.90
15115;DHT22;7658;51.456;7.622;2023-04-03T01:29:44;-0.10;99.90
15115;DHT22;7658;51.456;7.622;2023-04-03T01:32:11;-0.20;99.90
15115;DHT22;7658;51.456;7.622;2023-04-03T01:34:36;-0.30;99.90
15115;DHT22;7658;51.456;7.622;2023-04-03T01:37:02;-0.40;99.90
15115;DHT22;7658;51.456;7.622;2023-04-03T01:39:28;-0.50;99.90
15115;DHT22;7658;51.456;7.622;2023-04-03T01:41:54;-0.40;99.90
15115;DHT22;7658;51.456;7.622;2023-04-03T01:44:20;-0.30;99.90
15115;DHT22;7658;51.456;7.622;2023-04-03T01:46:46;-0.30;99.90
15115;DHT22;7658;51.456;7.622;2023-04-03T01:49:12;-0.40;99.90
15115;DHT22;7658;51.456;7.622;2023-04-03T01:51:38;-0.50;99.90
15115;DHT22;7658;51.456;7.622;2023-04-03T01:54:03;-0.60;99.90
15115;DHT22;7658;51.456;7.622;2023-04-03T01:56:29;-0.50;99.90
15115;DHT22;7658;51.456;7.622;2023-04-03T01:58:55;-0.50;99.90
15115;DHT22;7658;51.456;7.622;2023-04-03T02:01:21;-0.40;99.90
15115;DHT22;7658;51.456;7.622;2023-04-03T02:03:47;-0.40;99.90
15115;DHT22;7658;51.456;7.622;2023-04-03T02:06:13;-0.40;99.90
15115;DHT22;7658;51.456;7.622;2023-04-03T02:08:39;-0.30;99.90
15115;DHT22;7658;51.456;7.622;2023-04-03T02:11:05;-0.20;99.90
15115;DHT22;7658;51.456;7.622;2023-04-03T02:13:31;-0.20;99.90
15115;DHT22;7658;51.456;7.622;2023-04-03T02:15:57;-0.10;99.90
15115;DHT22;7658;51.456;7.622;2023-04-03T02:18:22;0.00;99.90
15115;DHT22;7658;51.456;7.622;2023-04-03T02:20:48;0.10;99.90
15115;DHT22;7658;51.456;7.622;2023-04-03T02:23:14;0.10;99.90
15115;DHT22;7658;51.456;7.622;2023-04-03T02:25:40;0.10;99.90
15115;DHT22;7658;51.456;7.622;2023-04-03T02:28:06;0.00;99.90
15115;DHT22;7658;51.456;7.622;2023-04-03T02:30:32;-0.10;99.90
15115;DHT22;7658;51.456;7.622;2023-04-03T02:32:58;-0.10;99.90
15115;DHT22;7658;51.456;7.622;2023-04-03T02:35:23;-0.20;99.90
15115;DHT22;7658;51.456;7.622;2023-04-03T02:37:49;-0.20;99.90
15115;DHT22;7658;51.456;7.622;2023-04-03T02:40:17;-0.20;99.90
15115;DHT22;7658;51.456;7.622;2023-04-03T02:42:43;-0.20;99.90
15115;DHT22;7658;51.456;7.622;2023-04-03T02:45:09;-0.20;99.90
15115;DHT22;7658;51.456;7.622;2023-04-03T02:47:35;-0.10;99.90
15115;DHT22;7658;51.456;7.622;2023-04-03T02:50:00;-0.10;99.90
15115;DHT22;7658;51.456;7.622;2023-04-03T02:52:26;0.00;99.90
15115;DHT22;7658;51.456;7.622;2023-04-03T02:54:52;0.00;99.90
15115;DHT22;7658;51.456;7.622;2023-04-03T02:57:18;0.00;99.90
15115;DHT22;7658;51.456;7.622;2023-04-03T02:59:45;0.10;99.90
15115;DHT22;7658;51.456;7.622;2023-04-03T03:02:11;0.10;99.90
15115;DHT22;7658;51.456;7.622;2023-04-03T03:04:37;0.20;99.90
15115;DHT22;7658;51.456;7.622;2023-04-03T03:07:03;0.20;99.90
15115;DHT22;7658;51.456;7.622;2023-04-03T03:09:29;0.20;99.90
15115;DHT22;7658;51.456;7.622;2023-04-03T03:11:55;0.20;99.90
15115;DHT22;7658;51.456;7.622;2023-04-03T03:14:21;0.30;99.90
15115;DHT22;7658;51.456;7.622;2023-04-03T03:16:47;0.30;99.90
15115;DHT22;7658;51.456;7.622;2023-04-03T03:19:13;0.40;99.90
15115;DHT22;7658;51.456;7.622;2023-04-03T03:21:39;0.40;99.90
15115;DHT22;7658;51.456;7.622;2023-04-03T03:24:04;0.40;99.90
15115;DHT22;7658;51.456;7.622;2023-04-03T03:26:31;0.40;99.90
15115;DHT22;7658;51.456;7.622;2023-04-03T03:28:56;0.40;99.90
15115;DHT22;7658;51.456;7.622;2023-04-03T03:31:22;0.40;99.90
15115;DHT22;7658;51.456;7.622;2023-04-03T03:33:48;0.40;99.90
15115;DHT22;7658;51.456;7.622;2023-04-03T03:36:13;0.40;99.90
15115;DHT22;7658;51.456;7.622;2023-04-03T03:38:39;0.40;99.90
15115;DHT22;7658;51.456;7.622;2023-04-03T03:41:05;0.40;99.90
15115;DHT22;7658;51.456;7.622;2023-04-03T03:43:31;0.40;99.90
15115;DHT22;7658;51.456;7.622;2023-04-03T03:45:57;0.40;99.90
15115;DHT22;7658;51.456;7.622;2023-04-03T03:48:23;0.30;99.90
15115;DHT22;7658;51.456;7.622;2023-04-03T03:50:49;0.20;99.90
15115;DHT22;7658;51.456;7.622;2023-04-03T03:53:15;0.10;99.90
15115;DHT22;7658;51.456;7.622;2023-04-03T03:55:41;0.00;99.90
15115;DHT22;7658;51.456;7.622;2023-04-03T03:58:07;0.00;99.90
15115;DHT22;7658;51.456;7.622;2023-04-03T04:00:33;0.00;99.90
15115;DHT22;7658;51.456;7.622;2023-04-03T04:02:59;0.00;99.90
15115;DHT22;7658;51.456;7.622;2023-04-03T04:05:25;0.00;99.90
15115;DHT22;7658;51.456;7.622;2023-04-03T04:07:50;0.00;99.90
15115;DHT22;7658;51.456;7.622;2023-04-03T04:10:16;0.00;99.90
15115;DHT22;7658;51.456;7.622;2023-04-03T04:12:42;0.00;99.90
15115;DHT22;7658;51.456;7.622;2023-04-03T04:15:08;0.00;99.90
15115;DHT22;7658;51.456;7.622;2023-04-03T04:17:34;-0.10;99.90
15115;DHT22;7658;51.456;7.622;2023-04-03T04:20:02;-0.10;99.90
15115;DHT22;7658;51.456;7.622;2023-04-03T04:22:28;-0.10;99.90
15115;DHT22;7658;51.456;7.622;2023-04-03T04:24:54;-0.10;99.90
15115;DHT22;7658;51.456;7.622;2023-04-03T04:27:19;-0.10;99.90
15115;DHT22;7658;51.456;7.622;2023-04-03T04:29:45;-0.20;99.90
15115;DHT22;7658;51.456;7.622;2023-04-03T04:32:11;-0.20;99.90
15115;DHT22;7658;51.456;7.622;2023-04-03T04:34:37;-0.20;99.90
15115;DHT22;7658;51.456;7.622;2023-04-03T04:37:02;-0.20;99.90
15115;DHT22;7658;51.456;7.622;2023-04-03T04:39:28;-0.20;99.90
15115;DHT22;7658;51.456;7.622;2023-04-03T04:41:54;-0.30;99.90
15115;DHT22;7658;51.456;7.622;2023-04-03T04:44:20;-0.30;99.90
15115;DHT22;7658;51.456;7.622;2023-04-03T04:46:46;-0.40;99.90
15115;DHT22;7658;51.456;7.622;2023-04-03T04:49:11;-0.40;99.90
15115;DHT22;7658;51.456;7.622;2023-04-03T04:51:37;-0.40;99.90
15115;DHT22;7658;51.456;7.622;2023-04-03T04:54:03;-0.40;99.90
15115;DHT22;7658;51.456;7.622;2023-04-03T04:56:29;-0.40;99.90
15115;DHT22;7658;51.456;7.622;2023-04-03T04:58:55;-0.40;99.90
15115;DHT22;7658;51.456;7.622;2023-04-03T05:01:21;-0.40;99.90
15115;DHT22;7658;51.456;7.622;2023-04-03T05:03:46;-0.50;99.90
15115;DHT22;7658;51.456;7.622;2023-04-03T05:06:13;-0.50;99.90
15115;DHT22;7658;51.456;7.622;2023-04-03T05:08:39;-0.50;99.90
15115;DHT22;7658;51.456;7.622;2023-04-03T05:11:05;-0.50;99.90
15115;DHT22;7658;51.456;7.622;2023-04-03T05:13:30;-0.60;99.90
15115;DHT22;7658;51.456;7.622;2023-04-03T05:15:56;-0.60;99.90
15115;DHT22;7658;51.456;7.622;2023-04-03T05:18:22;-0.60;99.90
15115;DHT22;7658;51.456;7.622;2023-04-03T05:20:51;-0.60;99.90
15115;DHT22;7658;51.456;7.622;2023-04-03T05:23:17;-0.50;99.90
15115;DHT22;7658;51.456;7.622;2023-04-03T05:25:43;-0.50;99.90
15115;DHT22;7658;51.456;7.622;2023-04-03T05:28:11;-0.50;99.90
15115;DHT22;7658;51.456;7.622;2023-04-03T05:30:37;-0.40;99.90
15115;DHT22;7658;51.456;7.622;2023-04-03T05:33:02;-0.30;99.90
15115;DHT22;7658;51.456;7.622;2023-04-03T05:35:28;-0.30;99.90
15115;DHT22;7658;51.456;7.622;2023-04-03T05:37:54;-0.20;99.90
15115;DHT22;7658;51.456;7.622;2023-04-03T05:40:20;-0.20;99.90
15115;DHT22;7658;51.456;7.622;2023-04-03T05:42:46;-0.20;99.90
15115;DHT22;7658;51.456;7.622;2023-04-03T05:45:12;-0.10;99.90
15115;DHT22;7658;51.456;7.622;2023-04-03T05:47:37;-0.10;99.90
15115;DHT22;7658;51.456;7.622;2023-04-03T05:50:04;0.00;99.90
15115;DHT22;7658;51.456;7.622;2023-04-03T05:52:38;0.10;99.90
15115;DHT22;7658;51.456;7.622;2023-04-03T05:55:05;0.20;99.90
15115;DHT22;7658;51.456;7.622;2023-04-03T05:57:31;0.30;99.90
15115;DHT22;7658;51.456;7.622;2023-04-03T05:59:57;0.30;99.90
15115;DHT22;7658;51.456;7.622;2023-04-03T06:02:24;0.30;99.90
15115;DHT22;7658;51.456;7.622;2023-04-03T06:04:51;0.40;99.90
15115;DHT22;7658;51.456;7.622;2023-04-03T06:07:22;0.50;99.90
15115;DHT22;7658;51.456;7.622;2023-04-03T06:09:51;0.50;99.90
15115;DHT22;7658;51.456;7.622;2023-04-03T06:12:17;0.60;99.90
15115;DHT22;7658;51.456;7.622;2023-04-03T06:14:43;0.60;99.90
15115;DHT22;7658;51.456;7.622;2023-04-03T06:17:09;0.70;99.90
15115;DHT22;7658;51.456;7.622;2023-04-03T06:19:36;0.80;99.90
15115;DHT22;7658;51.456;7.622;2023-04-03T06:22:02;0.90;99.90
15115;DHT22;7658;51.456;7.622;2023-04-03T06:24:28;0.90;99.90
15115;DHT22;7658;51.456;7.622;2023-04-03T06:26:54;1.00;99.90
15115;DHT22;7658;51.456;7.622;2023-04-03T06:29:20;1.10;99.90
15115;DHT22;7658;51.456;7.622;2023-04-03T06:31:46;1.20;99.90
15115;DHT22;7658;51.456;7.622;2023-04-03T06:34:13;1.30;99.90
15115;DHT22;7658;51.456;7.622;2023-04-03T06:36:39;1.30;99.90
15115;DHT22;7658;51.456;7.622;2023-04-03T06:39:05;1.40;99.90
15115;DHT22;7658;51.456;7.622;2023-04-03T06:41:32;1.50;99.90
15115;DHT22;7658;51.456;7.622;2023-04-03T06:43:58;1.60;99.90
15115;DHT22;7658;51.456;7.622;2023-04-03T06:46:25;1.60;99.90
15115;DHT22;7658;51.456;7.622;2023-04-03T06:48:52;1.80;99.90
15115;DHT22;7658;51.456;7.622;2023-04-03T06:51:26;1.80;99.90
15115;DHT22;7658;51.456;7.622;2023-04-03T06:53:53;1.90;99.90
15115;DHT22;7658;51.456;7.622;2023-04-03T06:56:20;2.00;99.90
15115;DHT22;7658;51.456;7.622;2023-04-03T06:58:46;2.00;99.90
15115;DHT22;7658;51.456;7.622;2023-04-03T07:01:14;2.10;99.90
15115;DHT22;7658;51.456;7.622;2023-04-03T07:03:41;2.20;99.90
15115;DHT22;7658;51.456;7.622;2023-04-03T07:06:07;2.30;99.90
15115;DHT22;7658;51.456;7.622;2023-04-03T07:08:34;2.30;99.90
15115;DHT22;7658;51.456;7.622;2023-04-03T07:11:00;2.50;99.90
15115;DHT22;7658;51.456;7.622;2023-04-03T07:13:26;2.50;99.90
15115;DHT22;7658;51.456;7.622;2023-04-03T07:15:52;2.60;99.90
15115;DHT22;7658;51.456;7.622;2023-04-03T07:18:19;2.70;99.90
15115;DHT22;7658;51.456;7.622;2023-04-03T07:20:45;2.80;99.90
15115;DHT22;7658;51.456;7.622;2023-04-03T07:23:11;2.80;99.90
15115;DHT22;7658;51.456;7.622;2023-04-03T07:25:42;3.00;99.90
15115;DHT22;7658;51.456;7.622;2023-04-03T07:28:07;3.00;99.90
15115;DHT22;7658;51.456;7.622;2023-04-03T07:30:34;3.10;99.90
15115;DHT22;7658;51.456;7.622;2023-04-03T07:33:00;3.10;99.90
15115;DHT22;7658;51.456;7.622;2023-04-03T07:35:26;3.20;99.90
15115;DHT22;7658;51.456;7.622;2023-04-03T07:37:52;3.30;99.90
15115;DHT22;7658;51.456;7.622;2023-04-03T07:40:18;3.40;99.90
15115;DHT22;7658;51.456;7.622;2023-04-03T07:42:44;3.40;99.90
15115;DHT22;7658;51.456;7.622;2023-04-03T07:45:10;3.50;99.90
15115;DHT22;7658;51.456;7.622;2023-04-03T07:47:36;3.50;99.90
15115;DHT22;7658;51.456;7.622;2023-04-03T07:50:02;3.70;99.90
15115;DHT22;7658;51.456;7.622;2023-04-03T07:52:27;3.70;99.90
15115;DHT22;7658;51.456;7.622;2023-04-03T07:54:53;3.80;99.90
15115;DHT22;7658;51.456;7.622;2023-04-03T07:57:19;3.90;99.90
15115;DHT22;7658;51.456;7.622;2023-04-03T07:59:44;3.90;99.90
15115;DHT22;7658;51.456;7.622;2023-04-03T08:02:11;3.90;99.90
15115;DHT22;7658;51.456;7.622;2023-04-03T08:04:37;4.10;99.90
15115;DHT22;7658;51.456;7.622;2023-04-03T08:07:03;4.20;99.90
15115;DHT22;7658;51.456;7.622;2023-04-03T08:09:29;4.30;99.90
15115;DHT22;7658;51.456;7.622;2023-04-03T08:11:55;4.40;99.90
15115;DHT22;7658;51.456;7.622;2023-04-03T08:14:20;4.50;99.90
15115;DHT22;7658;51.456;7.622;2023-04-03T08:16:47;4.50;99.90
15115;DHT22;7658;51.456;7.622;2023-04-03T08:19:14;4.60;99.90
15115;DHT22;7658;51.456;7.622;2023-04-03T08:21:42;4.50;99.90
15115;DHT22;7658;51.456;7.622;2023-04-03T08:24:08;4.60;99.90
15115;DHT22;7658;51.456;7.622;2023-04-03T08:26:35;4.70;99.90
15115;DHT22;7658;51.456;7.622;2023-04-03T08:29:01;4.70;99.90
15115;DHT22;7658;51.456;7.622;2023-04-03T08:31:27;4.80;99.90
15115;DHT22;7658;51.456;7.622;2023-04-03T08:33:53;4.80;99.90
15115;DHT22;7658;51.456;7.622;2023-04-03T08:36:24;4.90;99.90
15115;DHT22;7658;51.456;7.622;2023-04-03T08:38:53;5.10;99.90
15115;DHT22;7658;51.456;7.622;2023-04-03T08:49:13;5.50;99.90
15115;DHT22;7658;51.456;7.622;2023-04-03T08:51:46;5.60;99.90
15115;DHT22;7658;51.456;7.622;2023-04-03T08:54:27;5.50;99.90
15115;DHT22;7658;51.456;7.622;2023-04-03T08:56:55;5.60;99.90
15115;DHT22;7658;51.456;7.622;2023-04-03T08:59:28;5.70;99.90
15115;DHT22;7658;51.456;7.622;2023-04-03T09:01:54;5.70;99.90
15115;DHT22;7658;51.456;7.622;2023-04-03T09:04:21;5.80;99.90
15115;DHT22;7658;51.456;7.622;2023-04-03T09:06:55;5.90;99.90
15115;DHT22;7658;51.456;7.622;2023-04-03T09:09:39;6.00;99.90
15115;DHT22;7658;51.456;7.622;2023-04-03T09:12:24;6.30;99.90
15115;DHT22;7658;51.456;7.622;2023-04-03T09:17:43;6.60;99.90
15115;DHT22;7658;51.456;7.622;2023-04-03T09:20:14;6.60;99.90
15115;DHT22;7658;51.456;7.622;2023-04-03T09:22:43;6.60;99.90
15115;DHT22;7658;51.456;7.622;2023-04-03T09:27:47;6.80;99.90
15115;DHT22;7658;51.456;7.622;2023-04-03T09:30:19;6.90;99.90
15115;DHT22;7658;51.456;7.622;2023-04-03T09:32:47;7.10;99.90
15115;DHT22;7658;51.456;7.622;2023-04-03T09:37:45;7.20;99.90
15115;DHT22;7658;51.456;7.622;2023-04-03T09:40:28;7.10;99.90
15115;DHT22;7658;51.456;7.622;2023-04-03T09:43:00;7.30;99.90
15115;DHT22;7658;51.456;7.622;2023-04-03T09:45:34;7.30;99.90
15115;DHT22;7658;51.456;7.622;2023-04-03T09:50:59;7.20;99.90
15115;DHT22;7658;51.456;7.622;2023-04-03T09:53:40;7.30;99.90
15115;DHT22;7658;51.456;7.622;2023-04-03T09:59:07;7.30;99.90
15115;DHT22;7658;51.456;7.622;2023-04-03T10:01:38;7.40;99.90
15115;DHT22;7658;51.456;7.622;2023-04-03T10:04:15;7.50;99.90
15115;DHT22;7658;51.456;7.622;2023-04-03T10:06:47;7.50;99.90
15115;DHT22;7658;51.456;7.622;2023-04-03T10:09:31;7.50;99.90
15115;DHT22;7658;51.456;7.622;2023-04-03T10:12:07;7.60;99.90
15115;DHT22;7658;51.456;7.622;2023-04-03T10:14:39;7.60;99.90
15115;DHT22;7658;51.456;7.622;2023-04-03T10:17:21;7.60;99.90
15115;DHT22;7658;51.456;7.622;2023-04-03T10:25:23;7.50;99.90
15115;DHT22;7658;51.456;7.622;2023-04-03T10:35:45;7.60;99.90
15115;DHT22;7658;51.456;7.622;2023-04-03T10:38:30;7.60;99.90
15115;DHT22;7658;51.456;7.622;2023-04-03T10:41:07;7.70;99.90
15115;DHT22;7658;51.456;7.622;2023-04-03T10:46:33;7.90;99.90
15115;DHT22;7658;51.456;7.622;2023-04-03T10:49:23;7.90;99.90
15115;DHT22;7658;51.456;7.622;2023-04-03T10:52:02;8.00;99.90
15115;DHT22;7658;51.456;7.622;2023-04-03T10:57:36;8.00;99.90
15115;DHT22;7658;51.456;7.622;2023-04-03T11:00:20;8.10;99.90
15115;DHT22;7658;51.456;7.622;2023-04-03T11:05:37;8.10;99.90
15115;DHT22;7658;51.456;7.622;2023-04-03T11:08:57;8.20;99.90
15115;DHT22;7658;51.456;7.622;2023-04-03T11:11:09;8.40;99.90
15115;DHT22;7658;51.456;7.622;2023-04-03T11:13:43;8.60;99.90
15115;DHT22;7658;51.456;7.622;2023-04-03T11:16:20;8.70;99.90
15115;DHT22;7658;51.456;7.622;2023-04-03T11:19:03;8.70;99.90
15115;DHT22;7658;51.456;7.622;2023-04-03T11:21:37;8.80;99.90
15115;DHT22;7658;51.456;7.622;2023-04-03T11:24:08;8.90;99.90
15115;DHT22;7658;51.456;7.622;2023-04-03T11:26:40;8.80;99.90
15115;DHT22;7658;51.456;7.622;2023-04-03T11:29:14;9.00;99.90
15115;DHT22;7658;51.456;7.622;2023-04-03T11:34:37;9.30;99.90
15115;DHT22;7658;51.456;7.622;2023-04-03T11:39:58;9.50;99.90
15115;DHT22;7658;51.456;7.622;2023-04-03T11:42:42;9.50;99.90
15115;DHT22;7658;51.456;7.622;2023-04-03T11:48:07;9.60;99.90
15115;DHT22;7658;51.456;7.622;2023-04-03T11:50:51;9.50;99.90
15115;DHT22;7658;51.456;7.622;2023-04-03T11:53:28;9.70;99.90
15115;DHT22;7658;51.456;7.622;2023-04-03T11:55:56;9.80;99.90
15115;DHT22;7658;51.456;7.622;2023-04-03T11:58:30;10.10;99.90
15115;DHT22;7658;51.456;7.622;2023-04-03T12:01:06;10.30;99.90
15115;DHT22;7658;51.456;7.622;2023-04-03T12:03:56;10.30;99.90
15115;DHT22;7658;51.456;7.622;2023-04-03T12:09:29;10.40;99.90
15115;DHT22;7658;51.456;7.622;2023-04-03T12:11:56;10.30;99.90
15115;DHT22;7658;51.456;7.622;2023-04-03T12:14:23;10.30;99.90
15115;DHT22;7658;51.456;7.622;2023-04-03T12:16:52;10.50;99.90
15115;DHT22;7658;51.456;7.622;2023-04-03T12:19:35;10.60;99.90
15115;DHT22;7658;51.456;7.622;2023-04-03T12:24:30;10.70;99.90
15115;DHT22;7658;51.456;7.622;2023-04-03T12:27:32;11.00;99.90
15115;DHT22;7658;51.456;7.622;2023-04-03T12:30:22;11.20;99.90
15115;DHT22;7658;51.456;7.622;2023-04-03T12:35:43;11.10;99.90
15115;DHT22;7658;51.456;7.622;2023-04-03T12:44:11;11.50;99.90
15115;DHT22;7658;51.456;7.622;2023-04-03T12:46:43;11.40;99.90
15115;DHT22;7658;51.456;7.622;2023-04-03T12:51:56;11.50;99.90
15115;DHT22;7658;51.456;7.622;2023-04-03T12:54:32;11.50;99.90
15115;DHT22;7658;51.456;7.622;2023-04-03T12:57:18;11.50;99.90
15115;DHT22;7658;51.456;7.622;2023-04-03T12:59:44;11.50;98.90
15115;DHT22;7658;51.456;7.622;2023-04-03T13:02:34;11.50;99.90
15115;DHT22;7658;51.456;7.622;2023-04-03T13:05:07;11.50;99.00
15115;DHT22;7658;51.456;7.622;2023-04-03T13:07:38;11.30;99.70
15115;DHT22;7658;51.456;7.622;2023-04-03T13:15:21;11.40;98.90
15115;DHT22;7658;51.456;7.622;2023-04-03T13:17:49;11.40;99.50
15115;DHT22;7658;51.456;7.622;2023-04-03T13:23:07;11.30;98.30
15115;DHT22;7658;51.456;7.622;2023-04-03T13:25:36;11.10;98.70
15115;DHT22;7658;51.456;7.622;2023-04-03T13:28:07;11.50;99.90
15115;DHT22;7658;51.456;7.622;2023-04-03T13:30:37;11.80;99.70
15115;DHT22;7658;51.456;7.622;2023-04-03T13:33:05;11.90;98.80
15115;DHT22;7658;51.456;7.622;2023-04-03T13:35:40;11.90;99.20
15115;DHT22;7658;51.456;7.622;2023-04-03T13:41:29;11.70;97.90
15115;DHT22;7658;51.456;7.622;2023-04-03T13:43:55;11.80;98.90
15115;DHT22;7658;51.456;7.622;2023-04-03T13:46:28;11.80;97.70
15115;DHT22;7658;51.456;7.622;2023-04-03T13:48:55;11.70;98.20
15115;DHT22;7658;51.456;7.622;2023-04-03T13:51:27;11.60;97.60
15115;DHT22;7658;51.456;7.622;2023-04-03T13:53:59;11.70;98.00
15115;DHT22;7658;51.456;7.622;2023-04-03T13:56:33;11.70;97.40
15115;DHT22;7658;51.456;7.622;2023-04-03T14:02:18;11.90;97.60
15115;DHT22;7658;51.456;7.622;2023-04-03T14:07:11;11.90;99.00
15115;DHT22;7658;51.456;7.622;2023-04-03T14:09:37;12.00;98.20
15115;DHT22;7658;51.456;7.622;2023-04-03T14:12:13;11.80;98.70
15115;DHT22;7658;51.456;7.622;2023-04-03T14:14:41;11.50;96.90
15115;DHT22;7658;51.456;7.622;2023-04-03T14:17:26;11.20;96.80
15115;DHT22;7658;51.456;7.622;2023-04-03T14:19:54;10.90;98.60
15115;DHT22;7658;51.456;7.622;2023-04-03T14:22:21;10.90;99.20
15115;DHT22;7658;51.456;7.622;2023-04-03T14:24:49;10.90;98.10
15115;DHT22;7658;51.456;7.622;2023-04-03T14:29:55;11.00;98.70
15115;DHT22;7658;51.456;7.622;2023-04-03T14:32:23;11.10;99.90
15115;DHT22;7658;51.456;7.622;2023-04-03T14:34:50;10.90;98.50
15115;DHT22;7658;51.456;7.622;2023-04-03T14:37:20;10.70;98.70
15115;DHT22;7658;51.456;7.622;2023-04-03T14:39:47;10.60;98.40
15115;DHT22;7658;51.456;7.622;2023-04-03T14:42:19;10.40;98.50
15115;DHT22;7658;51.456;7.622;2023-04-03T14:44:45;10.20;98.50
15115;DHT22;7658;51.456;7.622;2023-04-03T14:47:18;10.20;98.60
15115;DHT22;7658;51.456;7.622;2023-04-03T14:49:45;10.30;99.90
15115;DHT22;7658;51.456;7.622;2023-04-03T14:52:23;10.30;99.50
15115;DHT22;7658;51.456;7.622;2023-04-03T14:54:50;10.30;99.90
15115;DHT22;7658;51.456;7.622;2023-04-03T14:57:17;10.20;99.90
15115;DHT22;7658;51.456;7.622;2023-04-03T14:59:44;10.10;99.90
15115;DHT22;7658;51.456;7.622;2023-04-03T15:02:35;10.00;99.90
15115;DHT22;7658;51.456;7.622;2023-04-03T15:05:05;10.10;99.90
15115;DHT22;7658;51.456;7.622;2023-04-03T15:07:37;10.00;99.90
15115;DHT22;7658;51.456;7.622;2023-04-03T15:10:26;10.00;99.60
15115;DHT22;7658;51.456;7.622;2023-04-03T15:12:53;10.00;99.90
15115;DHT22;7658;51.456;7.622;2023-04-03T15:15:20;9.90;99.90
15115;DHT22;7658;51.456;7.622;2023-04-03T15:17:50;9.90;99.90
15115;DHT22;7658;51.456;7.622;2023-04-03T15:20:21;9.80;99.90
15115;DHT22;7658;51.456;7.622;2023-04-03T15:22:48;9.60;99.90
15115;DHT22;7658;51.456;7.622;2023-04-03T15:25:14;9.40;99.70
15115;DHT22;7658;51.456;7.622;2023-04-03T15:27:41;9.20;99.90
15115;DHT22;7658;51.456;7.622;2023-04-03T15:30:11;9.00;99.90
15115;DHT22;7658;51.456;7.622;2023-04-03T15:32:38;9.00;99.90
15115;DHT22;7658;51.456;7.622;2023-04-03T15:35:04;8.80;99.90
15115;DHT22;7658;51.456;7.622;2023-04-03T15:37:30;8.70;99.90
15115;DHT22;7658;51.456;7.622;2023-04-03T15:39:56;8.60;99.90
15115;DHT22;7658;51.456;7.622;2023-04-03T15:42:22;8.50;99.90
15115;DHT22;7658;51.456;7.622;2023-04-03T15:44:48;8.50;99.90
15115;DHT22;7658;51.456;7.622;2023-04-03T15:47:13;8.40;99.90
15115;DHT22;7658;51.456;7.622;2023-04-03T15:49:40;8.40;99.90
15115;DHT22;7658;51.456;7.622;2023-04-03T15:52:06;8.30;99.90
15115;DHT22;7658;51.456;7.622;2023-04-03T15:54:32;8.20;99.90
15115;DHT22;7658;51.456;7.622;2023-04-03T15:56:57;8.20;99.90
15115;DHT22;7658;51.456;7.622;2023-04-03T15:59:23;8.20;99.90
15115;DHT22;7658;51.456;7.622;2023-04-03T16:01:50;8.20;99.90
15115;DHT22;7658;51.456;7.622;2023-04-03T16:04:16;8.10;99.90
15115;DHT22;7658;51.456;7.622;2023-04-03T16:06:42;8.10;99.90
15115;DHT22;7658;51.456;7.622;2023-04-03T16:09:09;8.10;99.90
15115;DHT22;7658;51.456;7.622;2023-04-03T16:11:35;8.10;99.90
15115;DHT22;7658;51.456;7.622;2023-04-03T16:14:04;8.00;99.90
15115;DHT22;7658;51.456;7.622;2023-04-03T16:16:31;8.00;99.90
15115;DHT22;7658;51.456;7.622;2023-04-03T16:18:57;7.90;99.90
15115;DHT22;7658;51.456;7.622;2023-04-03T16:21:23;7.90;99.90
15115;DHT22;7658;51.456;7.622;2023-04-03T16:23:49;7.80;99.90
15115;DHT22;7658;51.456;7.622;2023-04-03T16:26:15;7.70;99.90
15115;DHT22;7658;51.456;7.622;2023-04-03T16:28:43;7.60;99.90
15115;DHT22;7658;51.456;7.622;2023-04-03T16:31:09;7.60;99.90
15115;DHT22;7658;51.456;7.622;2023-04-03T16:33:35;7.60;99.90
15115;DHT22;7658;51.456;7.622;2023-04-03T16:36:03;7.50;99.90
15115;DHT22;7658;51.456;7.622;2023-04-03T16:38:29;7.50;99.90
15115;DHT22;7658;51.456;7.622;2023-04-03T16:40:54;7.40;99.90
15115;DHT22;7658;51.456;7.622;2023-04-03T16:43:25;7.30;99.90
15115;DHT22;7658;51.456;7.622;2023-04-03T16:45:51;7.40;99.90
15115;DHT22;7658;51.456;7.622;2023-04-03T16:48:17;7.40;99.90
15115;DHT22;7658;51.456;7.622;2023-04-03T16:50:46;7.30;99.90
15115;DHT22;7658;51.456;7.622;2023-04-03T16:53:14;7.30;99.90
15115;DHT22;7658;51.456;7.622;2023-04-03T16:55:40;7.30;99.90
15115;DHT22;7658;51.456;7.622;2023-04-03T16:58:06;7.30;99.90
15115;DHT22;7658;51.456;7.622;2023-04-03T17:00:32;7.30;99.90
15115;DHT22;7658;51.456;7.622;2023-04-03T17:02:59;7.20;99.90
15115;DHT22;7658;51.456;7.622;2023-04-03T17:05:25;7.20;99.90
15115;DHT22;7658;51.456;7.622;2023-04-03T17:07:51;7.10;99.90
15115;DHT22;7658;51.456;7.622;2023-04-03T17:10:17;7.10;99.90
15115;DHT22;7658;51.456;7.622;2023-04-03T17:12:42;7.00;99.90
15115;DHT22;7658;51.456;7.622;2023-04-03T17:15:08;7.00;99.90
15115;DHT22;7658;51.456;7.622;2023-04-03T17:17:35;6.90;99.90
15115;DHT22;7658;51.456;7.622;2023-04-03T17:20:02;6.80;99.90
15115;DHT22;7658;51.456;7.622;2023-04-03T17:22:28;6.80;99.90
15115;DHT22;7658;51.456;7.622;2023-04-03T17:24:54;6.70;99.90
15115;DHT22;7658;51.456;7.622;2023-04-03T17:27:20;6.70;99.90
15115;DHT22;7658;51.456;7.622;2023-04-03T17:29:46;6.70;99.90
15115;DHT22;7658;51.456;7.622;2023-04-03T17:32:11;6.70;99.90
15115;DHT22;7658;51.456;7.622;2023-04-03T17:34:37;6.60;99.90